sensor_id;sensor_type;location;lat;lon;timestamp;P1;durP1;ratioP1;P2;durP2;ratioP2
10063;SDS011;5071;52.360;13.134;2023-05-07T00:04:38;11.43;;;8.40;;
10063;SDS011;5071;52.360;13.134;2023-05-07T00:09:42;13.07;;;8.17;;
10063;SDS011;5071;52.360;13.134;2023-05-07T00:14:44;12.30;;;8.00;;
10063;SDS011;5071;52.360;13.134;2023-05-07T00:19:46;9.93;;;7.30;;
10063;SDS011;5071;52.360;13.134;2023-05-07T00:24:50;13.00;;;8.37;;
10063;SDS011;5071;52.360;13.134;2023-05-07T00:29:52;12.30;;;8.33;;
10063;SDS011;5071;52.360;13.134;2023-05-07T00:34:54;10.80;;;7.50;;
10063;SDS011;5071;52.360;13.134;2023-05-07T00:39:57;9.87;;;7.00;;
10063;SDS011;5071;52.360;13.134;2023-05-07T00:44:59;9.60;;;6.83;;
10063;SDS011;5071;52.360;13.134;2023-05-07T00:50:02;9.20;;;7.37;;
10063;SDS011;5071;52.360;13.134;2023-05-07T00:55:06;13.43;;;7.20;;
10063;SDS011;5071;52.360;13.134;2023-05-07T01:00:09;8.97;;;6.80;;
10063;SDS011;5071;52.360;13.134;2023-05-07T01:05:14;9.70;;;7.27;;
10063;SDS011;5071;52.360;13.134;2023-05-07T01:10:19;10.13;;;6.87;;
10063;SDS011;5071;52.360;13.134;2023-05-07T01:15:21;8.67;;;6.53;;
10063;SDS011;5071;52.360;13.134;2023-05-07T01:20:23;7.83;;;6.00;;
10063;SDS011;5071;52.360;13.134;2023-05-07T01:25:26;9.13;;;6.27;;
10063;SDS011;5071;52.360;13.134;2023-05-07T01:30:28;8.83;;;7.10;;
10063;SDS011;5071;52.360;13.134;2023-05-07T01:35:32;9.17;;;6.53;;
10063;SDS011;5071;52.360;13.134;2023-05-07T01:40:38;7.83;;;6.07;;
10063;SDS011;5071;52.360;13.134;2023-05-07T01:45:40;7.80;;;6.90;;
10063;SDS011;5071;52.360;13.134;2023-05-07T01:50:43;7.60;;;6.03;;
10063;SDS011;5071;52.360;13.134;2023-05-07T01:55:47;7.50;;;6.43;;
10063;SDS011;5071;52.360;13.134;2023-05-07T02:00:49;8.07;;;6.10;;
10063;SDS011;5071;52.360;13.134;2023-05-07T02:05:51;8.80;;;5.97;;
10063;SDS011;5071;52.360;13.134;2023-05-07T02:10:55;8.00;;;5.40;;
10063;SDS011;5071;52.360;13.134;2023-05-07T02:15:58;6.50;;;4.70;;
10063;SDS011;5071;52.360;13.134;2023-05-07T02:21:00;11.83;;;6.40;;
10063;SDS011;5071;52.360;13.134;2023-05-07T02:26:03;7.67;;;5.30;;
10063;SDS011;5071;52.360;13.134;2023-05-07T02:31:05;9.77;;;5.97;;
10063;SDS011;5071;52.360;13.134;2023-05-07T02:36:08;6.27;;;4.83;;
10063;SDS011;5071;52.360;13.134;2023-05-07T02:41:12;7.77;;;5.83;;
10063;SDS011;5071;52.360;13.134;2023-05-07T02:46:14;8.73;;;5.63;;
10063;SDS011;5071;52.360;13.134;2023-05-07T02:51:17;6.40;;;5.70;;
10063;SDS011;5071;52.360;13.134;2023-05-07T02:56:25;7.27;;;4.87;;
10063;SDS011;5071;52.360;13.134;2023-05-07T03:01:27;7.37;;;5.03;;
10063;SDS011;5071;52.360;13.134;2023-05-07T03:06:29;6.80;;;4.83;;
10063;SDS011;5071;52.360;13.134;2023-05-07T03:11:32;6.77;;;4.73;;
10063;SDS011;5071;52.360;13.134;2023-05-07T03:16:34;6.80;;;5.73;;
10063;SDS011;5071;52.360;13.134;2023-05-07T03:21:36;8.40;;;5.40;;
10063;SDS011;5071;52.360;13.134;2023-05-07T03:26:39;7.53;;;4.97;;
10063;SDS011;5071;52.360;13.134;2023-05-07T03:31:41;6.23;;;5.27;;
10063;SDS011;5071;52.360;13.134;2023-05-07T03:36:44;7.07;;;4.87;;
10063;SDS011;5071;52.360;13.134;2023-05-07T03:41:47;10.47;;;5.83;;
10063;SDS011;5071;52.360;13.134;2023-05-07T03:46:49;6.70;;;5.37;;
10063;SDS011;5071;52.360;13.134;2023-05-07T03:51:51;8.17;;;5.40;;
10063;SDS011;5071;52.360;13.134;2023-05-07T03:56:54;7.23;;;4.97;;
10063;SDS011;5071;52.360;13.134;2023-05-07T04:01:56;6.77;;;5.37;;
10063;SDS011;5071;52.360;13.134;2023-05-07T04:06:58;8.73;;;5.10;;
10063;SDS011;5071;52.360;13.134;2023-05-07T04:12:01;6.83;;;5.27;;
10063;SDS011;5071;52.360;13.134;2023-05-07T04:17:04;6.70;;;5.03;;
10063;SDS011;5071;52.360;13.134;2023-05-07T04:22:06;5.40;;;4.70;;
10063;SDS011;5071;52.360;13.134;2023-05-07T04:27:09;8.67;;;5.00;;
10063;SDS011;5071;52.360;13.134;2023-05-07T04:32:11;6.60;;;5.30;;
10063;SDS011;5071;52.360;13.134;2023-05-07T04:37:13;8.70;;;4.83;;
10063;SDS011;5071;52.360;13.134;2023-05-07T04:42:16;6.77;;;4.97;;
10063;SDS011;5071;52.360;13.134;2023-05-07T04:47:20;5.47;;;4.37;;
10063;SDS011;5071;52.360;13.134;2023-05-07T04:52:21;6.43;;;4.83;;
10063;SDS011;5071;52.360;13.134;2023-05-07T04:57:27;6.50;;;4.70;;
10063;SDS011;5071;52.360;13.134;2023-05-07T05:02:30;6.83;;;5.33;;
10063;SDS011;5071;52.360;13.134;2023-05-07T05:07:31;6.77;;;5.67;;
10063;SDS011;5071;52.360;13.134;2023-05-07T05:12:35;8.40;;;5.33;;
10063;SDS011;5071;52.360;13.134;2023-05-07T05:17:37;8.43;;;5.50;;
10063;SDS011;5071;52.360;13.134;2023-05-07T05:22:40;7.47;;;5.20;;
10063;SDS011;5071;52.360;13.134;2023-05-07T05:27:44;8.03;;;5.83;;
10063;SDS011;5071;52.360;13.134;2023-05-07T05:32:45;5.70;;;4.73;;
10063;SDS011;5071;52.360;13.134;2023-05-07T05:37:48;6.00;;;4.93;;
10063;SDS011;5071;52.360;13.134;2023-05-07T05:42:51;7.20;;;5.10;;
10063;SDS011;5071;52.360;13.134;2023-05-07T05:47:55;6.17;;;5.17;;
10063;SDS011;5071;52.360;13.134;2023-05-07T05:52:57;6.27;;;4.80;;
10063;SDS011;5071;52.360;13.134;2023-05-07T05:58:02;5.60;;;4.57;;
10063;SDS011;5071;52.360;13.134;2023-05-07T06:03:04;6.23;;;5.10;;
10063;SDS011;5071;52.360;13.134;2023-05-07T06:08:07;7.17;;;4.50;;
10063;SDS011;5071;52.360;13.134;2023-05-07T06:13:10;5.27;;;4.70;;
10063;SDS011;5071;52.360;13.134;2023-05-07T06:18:12;6.27;;;4.93;;
10063;SDS011;5071;52.360;13.134;2023-05-07T06:23:14;5.03;;;4.47;;
10063;SDS011;5071;52.360;13.134;2023-05-07T06:28:20;6.77;;;4.33;;
10063;SDS011;5071;52.360;13.134;2023-05-07T06:33:22;4.93;;;3.80;;
10063;SDS011;5071;52.360;13.134;2023-05-07T06:38:24;5.43;;;3.70;;
10063;SDS011;5071;52.360;13.134;2023-05-07T06:43:27;4.27;;;3.17;;
10063;SDS011;5071;52.360;13.134;2023-05-07T06:48:29;4.33;;;3.47;;
10063;SDS011;5071;52.360;13.134;2023-05-07T06:53:31;4.90;;;3.67;;
10063;SDS011;5071;52.360;13.134;2023-05-07T06:58:35;2.67;;;2.43;;
10063;SDS011;5071;52.360;13.134;2023-05-07T07:03:36;6.73;;;3.30;;
10063;SDS011;5071;52.360;13.134;2023-05-07T07:08:39;3.90;;;3.10;;
10063;SDS011;5071;52.360;13.134;2023-05-07T07:13:42;3.60;;;2.97;;
10063;SDS011;5071;52.360;13.134;2023-05-07T07:18:44;4.13;;;3.07;;
10063;SDS011;5071;52.360;13.134;2023-05-07T07:23:46;3.07;;;2.67;;
10063;SDS011;5071;52.360;13.134;2023-05-07T07:28:49;3.00;;;2.70;;
10063;SDS011;5071;52.360;13.134;2023-05-07T07:33:51;3.37;;;2.60;;
10063;SDS011;5071;52.360;13.134;2023-05-07T07:38:53;4.73;;;3.33;;
10063;SDS011;5071;52.360;13.134;2023-05-07T07:43:57;3.57;;;2.60;;
10063;SDS011;5071;52.360;13.134;2023-05-07T07:49:00;3.73;;;2.90;;
10063;SDS011;5071;52.360;13.134;2023-05-07T07:54:02;4.70;;;3.37;;
10063;SDS011;5071;52.360;13.134;2023-05-07T07:59:06;4.60;;;2.73;;
10063;SDS011;5071;52.360;13.134;2023-05-07T08:04:08;3.60;;;2.73;;
10063;SDS011;5071;52.360;13.134;2023-05-07T08:09:10;3.20;;;2.90;;
10063;SDS011;5071;52.360;13.134;2023-05-07T08:14:13;3.60;;;2.80;;
10063;SDS011;5071;52.360;13.134;2023-05-07T08:19:15;2.90;;;2.60;;
10063;SDS011;5071;52.360;13.134;2023-05-07T08:24:17;3.73;;;2.87;;
10063;SDS011;5071;52.360;13.134;2023-05-07T08:29:21;2.23;;;2.03;;
10063;SDS011;5071;52.360;13.134;2023-05-07T08:34:23;3.70;;;2.20;;
10063;SDS011;5071;52.360;13.134;2023-05-07T08:39:25;2.57;;;2.03;;
10063;SDS011;5071;52.360;13.134;2023-05-07T08:44:28;2.57;;;2.37;;
10063;SDS011;5071;52.360;13.134;2023-05-07T08:49:34;2.57;;;1.80;;
10063;SDS011;5071;52.360;13.134;2023-05-07T08:54:36;2.17;;;1.97;;
10063;SDS011;5071;52.360;13.134;2023-05-07T08:59:41;3.90;;;2.30;;
10063;SDS011;5071;52.360;13.134;2023-05-07T09:04:42;2.10;;;1.73;;
10063;SDS011;5071;52.360;13.134;2023-05-07T09:09:44;3.63;;;2.00;;
10063;SDS011;5071;52.360;13.134;2023-05-07T09:14:48;2.90;;;1.70;;
10063;SDS011;5071;52.360;13.134;2023-05-07T09:19:50;2.10;;;1.50;;
10063;SDS011;5071;52.360;13.134;2023-05-07T09:24:52;1.93;;;1.63;;
10063;SDS011;5071;52.360;13.134;2023-05-07T09:29:55;2.47;;;1.10;;
10063;SDS011;5071;52.360;13.134;2023-05-07T09:34:57;2.00;;;1.80;;
10063;SDS011;5071;52.360;13.134;2023-05-07T09:39:59;2.10;;;1.90;;
10063;SDS011;5071;52.360;13.134;2023-05-07T09:45:03;1.93;;;1.57;;
10063;SDS011;5071;52.360;13.134;2023-05-07T09:50:08;2.17;;;1.70;;
10063;SDS011;5071;52.360;13.134;2023-05-07T09:55:11;3.63;;;1.73;;
10063;SDS011;5071;52.360;13.134;2023-05-07T10:00:15;1.90;;;1.50;;
10063;SDS011;5071;52.360;13.134;2023-05-07T10:05:19;2.17;;;1.20;;
10063;SDS011;5071;52.360;13.134;2023-05-07T10:10:22;2.87;;;1.83;;
10063;SDS011;5071;52.360;13.134;2023-05-07T10:15:26;2.17;;;1.80;;
10063;SDS011;5071;52.360;13.134;2023-05-07T10:20:31;1.50;;;1.40;;
10063;SDS011;5071;52.360;13.134;2023-05-07T10:25:34;1.80;;;1.40;;
10063;SDS011;5071;52.360;13.134;2023-05-07T10:30:40;1.23;;;1.13;;
10063;SDS011;5071;52.360;13.134;2023-05-07T10:35:55;1.50;;;1.33;;
10063;SDS011;5071;52.360;13.134;2023-05-07T10:40:59;1.70;;;1.17;;
10063;SDS011;5071;52.360;13.134;2023-05-07T10:46:10;1.40;;;1.30;;
10063;SDS011;5071;52.360;13.134;2023-05-07T10:51:20;2.30;;;1.30;;
10063;SDS011;5071;52.360;13.134;2023-05-07T10:56:24;3.30;;;1.90;;
10063;SDS011;5071;52.360;13.134;2023-05-07T11:17:56;1.10;;;1.00;;
10063;SDS011;5071;52.360;13.134;2023-05-07T11:22:59;1.60;;;1.50;;
10063;SDS011;5071;52.360;13.134;2023-05-07T11:28:05;1.67;;;1.27;;
10063;SDS011;5071;52.360;13.134;2023-05-07T11:33:08;1.20;;;1.10;;
10063;SDS011;5071;52.360;13.134;2023-05-07T11:38:11;1.03;;;0.97;;
10063;SDS011;5071;52.360;13.134;2023-05-07T11:43:14;1.43;;;1.33;;
10063;SDS011;5071;52.360;13.134;2023-05-07T11:48:17;1.20;;;1.10;;
10063;SDS011;5071;52.360;13.134;2023-05-07T11:53:20;1.87;;;1.20;;
10063;SDS011;5071;52.360;13.134;2023-05-07T11:58:22;2.73;;;1.37;;
10063;SDS011;5071;52.360;13.134;2023-05-07T12:03:27;1.63;;;1.40;;
10063;SDS011;5071;52.360;13.134;2023-05-07T12:08:32;2.73;;;1.50;;
10063;SDS011;5071;52.360;13.134;2023-05-07T12:13:34;1.33;;;1.23;;
10063;SDS011;5071;52.360;13.134;2023-05-07T12:18:38;0.93;;;0.93;;
10063;SDS011;5071;52.360;13.134;2023-05-07T12:23:41;1.43;;;1.33;;
10063;SDS011;5071;52.360;13.134;2023-05-07T12:28:43;3.70;;;1.63;;
10063;SDS011;5071;52.360;13.134;2023-05-07T12:33:46;1.40;;;1.30;;
10063;SDS011;5071;52.360;13.134;2023-05-07T12:38:49;1.40;;;1.23;;
10063;SDS011;5071;52.360;13.134;2023-05-07T12:43:51;1.87;;;1.50;;
10063;SDS011;5071;52.360;13.134;2023-05-07T12:48:59;1.97;;;1.50;;
10063;SDS011;5071;52.360;13.134;2023-05-07T12:54:01;1.40;;;1.30;;
10063;SDS011;5071;52.360;13.134;2023-05-07T12:59:03;1.10;;;1.00;;
10063;SDS011;5071;52.360;13.134;2023-05-07T13:04:06;1.07;;;0.97;;
10063;SDS011;5071;52.360;13.134;2023-05-07T13:09:08;0.80;;;0.80;;
10063;SDS011;5071;52.360;13.134;2023-05-07T13:14:11;1.00;;;1.00;;
10063;SDS011;5071;52.360;13.134;2023-05-07T13:19:15;1.50;;;1.00;;
10063;SDS011;5071;52.360;13.134;2023-05-07T13:24:17;1.13;;;1.03;;
10063;SDS011;5071;52.360;13.134;2023-05-07T13:29:20;1.60;;;1.00;;
10063;SDS011;5071;52.360;13.134;2023-05-07T13:34:23;1.53;;;0.70;;
10063;SDS011;5071;52.360;13.134;2023-05-07T13:39:25;1.63;;;1.10;;
10063;SDS011;5071;52.360;13.134;2023-05-07T13:44:27;1.03;;;1.00;;
10063;SDS011;5071;52.360;13.134;2023-05-07T13:49:30;2.83;;;1.20;;
10063;SDS011;5071;52.360;13.134;2023-05-07T13:54:33;1.23;;;1.13;;
10063;SDS011;5071;52.360;13.134;2023-05-07T13:59:35;1.97;;;0.80;;
10063;SDS011;5071;52.360;13.134;2023-05-07T14:04:38;1.63;;;0.87;;
10063;SDS011;5071;52.360;13.134;2023-05-07T14:09:40;1.20;;;0.87;;
10063;SDS011;5071;52.360;13.134;2023-05-07T14:14:42;1.73;;;1.10;;
10063;SDS011;5071;52.360;13.134;2023-05-07T14:19:45;1.10;;;0.90;;
10063;SDS011;5071;52.360;13.134;2023-05-07T14:24:47;1.70;;;1.03;;
10063;SDS011;5071;52.360;13.134;2023-05-07T14:30:06;1.67;;;1.00;;
10063;SDS011;5071;52.360;13.134;2023-05-07T14:35:11;1.50;;;0.90;;
10063;SDS011;5071;52.360;13.134;2023-05-07T14:40:13;1.20;;;1.10;;
10063;SDS011;5071;52.360;13.134;2023-05-07T14:45:15;1.23;;;1.10;;
10063;SDS011;5071;52.360;13.134;2023-05-07T14:50:18;1.90;;;1.40;;
10063;SDS011;5071;52.360;13.134;2023-05-07T14:55:21;4.47;;;1.47;;
10063;SDS011;5071;52.360;13.134;2023-05-07T15:00:23;1.40;;;1.30;;
10063;SDS011;5071;52.360;13.134;2023-05-07T15:05:26;1.80;;;1.00;;
10063;SDS011;5071;52.360;13.134;2023-05-07T15:10:28;0.90;;;0.90;;
10063;SDS011;5071;52.360;13.134;2023-05-07T15:15:31;3.30;;;1.23;;
10063;SDS011;5071;52.360;13.134;2023-05-07T15:20:34;1.37;;;1.10;;
10063;SDS011;5071;52.360;13.134;2023-05-07T15:25:37;1.30;;;1.20;;
10063;SDS011;5071;52.360;13.134;2023-05-07T15:30:39;1.07;;;1.00;;
10063;SDS011;5071;52.360;13.134;2023-05-07T15:35:42;1.10;;;1.00;;
10063;SDS011;5071;52.360;13.134;2023-05-07T15:40:44;1.13;;;1.00;;
10063;SDS011;5071;52.360;13.134;2023-05-07T15:45:47;1.33;;;1.23;;
10063;SDS011;5071;52.360;13.134;2023-05-07T15:50:50;1.20;;;1.10;;
10063;SDS011;5071;52.360;13.134;2023-05-07T15:55:52;2.07;;;1.50;;
10063;SDS011;5071;52.360;13.134;2023-05-07T16:00:54;1.77;;;0.97;;
10063;SDS011;5071;52.360;13.134;2023-05-07T16:05:58;1.67;;;1.00;;
10063;SDS011;5071;52.360;13.134;2023-05-07T16:11:00;2.03;;;1.30;;
10063;SDS011;5071;52.360;13.134;2023-05-07T16:16:02;1.27;;;1.10;;
10063;SDS011;5071;52.360;13.134;2023-05-07T16:21:06;1.63;;;0.87;;
10063;SDS011;5071;52.360;13.134;2023-05-07T16:26:08;1.17;;;1.07;;
10063;SDS011;5071;52.360;13.134;2023-05-07T16:31:10;1.07;;;0.60;;
10063;SDS011;5071;52.360;13.134;2023-05-07T16:36:14;1.00;;;0.90;;
10063;SDS011;5071;52.360;13.134;2023-05-07T16:41:15;1.73;;;0.90;;
10063;SDS011;5071;52.360;13.134;2023-05-07T16:46:17;0.70;;;0.70;;
10063;SDS011;5071;52.360;13.134;2023-05-07T16:51:21;2.47;;;0.90;;
10063;SDS011;5071;52.360;13.134;2023-05-07T16:56:23;1.73;;;0.90;;
10063;SDS011;5071;52.360;13.134;2023-05-07T17:01:25;2.40;;;0.97;;
10063;SDS011;5071;52.360;13.134;2023-05-07T17:06:28;1.43;;;0.67;;
10063;SDS011;5071;52.360;13.134;2023-05-07T17:11:30;1.03;;;0.90;;
10063;SDS011;5071;52.360;13.134;2023-05-07T17:16:32;2.47;;;1.17;;
10063;SDS011;5071;52.360;13.134;2023-05-07T17:21:35;1.67;;;1.20;;
10063;SDS011;5071;52.360;13.134;2023-05-07T17:26:37;1.23;;;1.13;;
10063;SDS011;5071;52.360;13.134;2023-05-07T17:31:40;1.60;;;1.50;;
10063;SDS011;5071;52.360;13.134;2023-05-07T17:36:43;1.40;;;0.90;;
10063;SDS011;5071;52.360;13.134;2023-05-07T17:41:45;0.73;;;0.70;;
10063;SDS011;5071;52.360;13.134;2023-05-07T17:46:47;3.50;;;0.93;;
10063;SDS011;5071;52.360;13.134;2023-05-07T17:51:50;0.93;;;0.90;;
10063;SDS011;5071;52.360;13.134;2023-05-07T17:56:56;3.63;;;1.20;;
10063;SDS011;5071;52.360;13.134;2023-05-07T18:01:57;1.67;;;1.00;;
10063;SDS011;5071;52.360;13.134;2023-05-07T18:07:01;1.27;;;0.90;;
10063;SDS011;5071;52.360;13.134;2023-05-07T18:12:03;0.90;;;0.80;;
10063;SDS011;5071;52.360;13.134;2023-05-07T18:17:06;0.90;;;0.70;;
10063;SDS011;5071;52.360;13.134;2023-05-07T18:22:09;0.80;;;0.80;;
10063;SDS011;5071;52.360;13.134;2023-05-07T18:27:11;1.40;;;0.80;;
10063;SDS011;5071;52.360;13.134;2023-05-07T18:32:13;1.20;;;1.10;;
10063;SDS011;5071;52.360;13.134;2023-05-07T18:37:17;1.07;;;0.77;;
10063;SDS011;5071;52.360;13.134;2023-05-07T18:42:19;1.40;;;1.20;;
10063;SDS011;5071;52.360;13.134;2023-05-07T18:47:21;1.27;;;1.17;;
10063;SDS011;5071;52.360;13.134;2023-05-07T18:52:25;1.30;;;0.83;;
10063;SDS011;5071;52.360;13.134;2023-05-07T18:57:27;1.37;;;1.13;;
10063;SDS011;5071;52.360;13.134;2023-05-07T19:02:30;1.33;;;1.17;;
10063;SDS011;5071;52.360;13.134;2023-05-07T19:07:33;1.17;;;1.07;;
10063;SDS011;5071;52.360;13.134;2023-05-07T19:12:35;1.30;;;1.20;;
10063;SDS011;5071;52.360;13.134;2023-05-07T19:17:37;1.70;;;1.30;;
10063;SDS011;5071;52.360;13.134;2023-05-07T19:22:41;1.73;;;1.20;;
10063;SDS011;5071;52.360;13.134;2023-05-07T19:27:43;1.27;;;1.17;;
10063;SDS011;5071;52.360;13.134;2023-05-07T19:32:46;1.77;;;1.50;;
10063;SDS011;5071;52.360;13.134;2023-05-07T19:37:50;2.27;;;1.63;;
10063;SDS011;5071;52.360;13.134;2023-05-07T19:42:52;1.53;;;1.43;;
10063;SDS011;5071;52.360;13.134;2023-05-07T19:47:54;1.57;;;1.43;;
10063;SDS011;5071;52.360;13.134;2023-05-07T19:52:58;2.83;;;1.30;;
10063;SDS011;5071;52.360;13.134;2023-05-07T19:58:00;1.50;;;1.40;;
10063;SDS011;5071;52.360;13.134;2023-05-07T20:03:02;2.23;;;1.83;;
10063;SDS011;5071;52.360;13.134;2023-05-07T20:08:06;1.63;;;1.53;;
10063;SDS011;5071;52.360;13.134;2023-05-07T20:13:08;2.60;;;1.70;;
10063;SDS011;5071;52.360;13.134;2023-05-07T20:18:10;1.77;;;1.67;;
10063;SDS011;5071;52.360;13.134;2023-05-07T20:23:13;1.50;;;1.40;;
10063;SDS011;5071;52.360;13.134;2023-05-07T20:28:16;2.00;;;1.80;;
10063;SDS011;5071;52.360;13.134;2023-05-07T20:33:18;1.97;;;1.60;;
10063;SDS011;5071;52.360;13.134;2023-05-07T20:38:21;2.10;;;1.63;;
10063;SDS011;5071;52.360;13.134;2023-05-07T20:43:23;2.00;;;1.80;;
10063;SDS011;5071;52.360;13.134;2023-05-07T20:48:26;4.33;;;2.10;;
10063;SDS011;5071;52.360;13.134;2023-05-07T20:53:30;2.20;;;2.00;;
10063;SDS011;5071;52.360;13.134;2023-05-07T20:58:32;2.80;;;2.00;;
10063;SDS011;5071;52.360;13.134;2023-05-07T21:03:35;2.27;;;1.97;;
10063;SDS011;5071;52.360;13.134;2023-05-07T21:08:38;2.37;;;2.00;;
10063;SDS011;5071;52.360;13.134;2023-05-07T21:13:40;2.50;;;2.30;;
10063;SDS011;5071;52.360;13.134;2023-05-07T21:18:42;2.70;;;2.50;;
10063;SDS011;5071;52.360;13.134;2023-05-07T21:23:45;2.80;;;2.43;;
10063;SDS011;5071;52.360;13.134;2023-05-07T21:28:48;2.53;;;2.27;;
10063;SDS011;5071;52.360;13.134;2023-05-07T21:33:50;3.43;;;2.50;;
10063;SDS011;5071;52.360;13.134;2023-05-07T21:38:54;2.60;;;2.17;;
10063;SDS011;5071;52.360;13.134;2023-05-07T21:43:56;2.33;;;2.13;;
10063;SDS011;5071;52.360;13.134;2023-05-07T21:48:59;3.10;;;2.30;;
10063;SDS011;5071;52.360;13.134;2023-05-07T21:54:02;2.73;;;2.47;;
10063;SDS011;5071;52.360;13.134;2023-05-07T21:59:04;3.73;;;2.50;;
10063;SDS011;5071;52.360;13.134;2023-05-07T22:04:07;3.87;;;2.40;;
10063;SDS011;5071;52.360;13.134;2023-05-07T22:09:10;2.63;;;2.43;;
10063;SDS011;5071;52.360;13.134;2023-05-07T22:14:12;3.40;;;2.60;;
10063;SDS011;5071;52.360;13.134;2023-05-07T22:19:14;3.37;;;2.83;;
10063;SDS011;5071;52.360;13.134;2023-05-07T22:24:17;3.60;;;2.83;;
10063;SDS011;5071;52.360;13.134;2023-05-07T22:29:19;2.33;;;2.13;;
10063;SDS011;5071;52.360;13.134;2023-05-07T22:34:22;6.27;;;3.07;;
10063;SDS011;5071;52.360;13.134;2023-05-07T22:39:25;4.07;;;2.47;;
10063;SDS011;5071;52.360;13.134;2023-05-07T22:44:27;2.80;;;2.50;;
10063;SDS011;5071;52.360;13.134;2023-05-07T22:49:30;3.77;;;2.93;;
10063;SDS011;5071;52.360;13.134;2023-05-07T22:54:33;3.53;;;3.03;;
10063;SDS011;5071;52.360;13.134;2023-05-07T22:59:35;3.57;;;2.83;;
10063;SDS011;5071;52.360;13.134;2023-05-07T23:04:37;3.40;;;2.90;;
10063;SDS011;5071;52.360;13.134;2023-05-07T23:09:41;5.43;;;3.10;;
10063;SDS011;5071;52.360;13.134;2023-05-07T23:14:43;4.33;;;3.73;;
10063;SDS011;5071;52.360;13.134;2023-05-07T23:19:45;3.50;;;2.73;;
10063;SDS011;5071;52.360;13.134;2023-05-07T23:24:49;5.93;;;3.00;;
10063;SDS011;5071;52.360;13.134;2023-05-07T23:29:52;3.70;;;3.00;;
10063;SDS011;5071;52.360;13.134;2023-05-07T23:34:53;4.07;;;3.10;;
10063;SDS011;5071;52.360;13.134;2023-05-07T23:39:57;3.90;;;2.90;;
10063;SDS011;5071;52.360;13.134;2023-05-07T23:44:59;3.90;;;3.27;;
10063;SDS011;5071;52.360;13.134;2023-05-07T23:50:01;3.80;;;3.10;;
10063;SDS011;5071;52.360;13.134;2023-05-07T23:55:05;6.00;;;3.43;;
